sensor_id;sensor_type;location;lat;lon;timestamp;pressure;altitude;pressure_sealevel;temperature;humidity
5755;BME280;2902;42.130;24.732;2023-05-17T00:01:18;98970.19;;;15.39;82.04
5755;BME280;2902;42.130;24.732;2023-05-17T00:03:44;98965.25;;;15.19;82.07
5755;BME280;2902;42.130;24.732;2023-05-17T00:06:11;98972.84;;;15.11;83.44
5755;BME280;2902;42.130;24.732;2023-05-17T00:08:38;98973.84;;;14.82;83.87
5755;BME280;2902;42.130;24.732;2023-05-17T00:11:06;98959.94;;;14.68;85.29
5755;BME280;2902;42.130;24.732;2023-05-17T00:13:32;98978.84;;;14.78;85.38
5755;BME280;2902;42.130;24.732;2023-05-17T00:16:00;98975.38;;;14.66;85.70
5755;BME280;2902;42.130;24.732;2023-05-17T00:18:26;98978.75;;;14.73;86.24
5755;BME280;2902;42.130;24.732;2023-05-17T00:20:53;98988.50;;;14.79;86.66
5755;BME280;2902;42.130;24.732;2023-05-17T00:23:20;98978.66;;;14.68;87.00
5755;BME280;2902;42.130;24.732;2023-05-17T00:25:46;98980.47;;;14.79;87.35
5755;BME280;2902;42.130;24.732;2023-05-17T00:28:15;98978.94;;;14.83;87.74
5755;BME280;2902;42.130;24.732;2023-05-17T00:30:41;98977.09;;;14.84;87.89
5755;BME280;2902;42.130;24.732;2023-05-17T00:33:08;98973.41;;;14.73;88.45
5755;BME280;2902;42.130;24.732;2023-05-17T00:35:35;98973.72;;;14.77;88.95
5755;BME280;2902;42.130;24.732;2023-05-17T00:38:01;98964.59;;;14.50;91.02
5755;BME280;2902;42.130;24.732;2023-05-17T00:40:28;98957.53;;;14.32;92.37
5755;BME280;2902;42.130;24.732;2023-05-17T00:42:55;98967.84;;;14.52;92.59
5755;BME280;2902;42.130;24.732;2023-05-17T00:45:23;98967.72;;;14.58;92.42
5755;BME280;2902;42.130;24.732;2023-05-17T00:47:50;98949.09;;;14.63;91.89
5755;BME280;2902;42.130;24.732;2023-05-17T00:50:17;98943.00;;;14.51;92.85
5755;BME280;2902;42.130;24.732;2023-05-17T00:52:44;98934.50;;;14.43;94.01
5755;BME280;2902;42.130;24.732;2023-05-17T00:55:11;98933.91;;;14.41;94.36
5755;BME280;2902;42.130;24.732;2023-05-17T00:57:38;98930.66;;;14.50;94.31
5755;BME280;2902;42.130;24.732;2023-05-17T01:00:06;98940.53;;;14.61;94.31
5755;BME280;2902;42.130;24.732;2023-05-17T01:02:35;98941.59;;;14.60;94.27
5755;BME280;2902;42.130;24.732;2023-05-17T01:05:02;98943.09;;;14.56;94.22
5755;BME280;2902;42.130;24.732;2023-05-17T01:07:29;98952.03;;;14.62;94.36
5755;BME280;2902;42.130;24.732;2023-05-17T01:09:56;98934.59;;;14.59;94.03
5755;BME280;2902;42.130;24.732;2023-05-17T01:12:34;98945.41;;;14.64;93.88
5755;BME280;2902;42.130;24.732;2023-05-17T01:15:08;98943.31;;;14.66;94.23
5755;BME280;2902;42.130;24.732;2023-05-17T01:17:48;98947.72;;;14.72;94.21
5755;BME280;2902;42.130;24.732;2023-05-17T01:20:20;98937.72;;;14.68;94.41
5755;BME280;2902;42.130;24.732;2023-05-17T01:23:05;98954.78;;;14.78;93.73
5755;BME280;2902;42.130;24.732;2023-05-17T01:25:45;98948.75;;;14.83;93.99
5755;BME280;2902;42.130;24.732;2023-05-17T01:28:17;98951.84;;;14.91;93.63
5755;BME280;2902;42.130;24.732;2023-05-17T01:30:46;98943.59;;;14.93;93.49
5755;BME280;2902;42.130;24.732;2023-05-17T01:33:16;98931.84;;;14.94;93.30
5755;BME280;2902;42.130;24.732;2023-05-17T01:35:43;98899.31;;;14.85;93.45
5755;BME280;2902;42.130;24.732;2023-05-17T01:38:10;98917.84;;;15.03;93.37
5755;BME280;2902;42.130;24.732;2023-05-17T01:40:51;98916.09;;;15.09;93.02
5755;BME280;2902;42.130;24.732;2023-05-17T01:43:32;98924.72;;;14.99;93.36
5755;BME280;2902;42.130;24.732;2023-05-17T01:46:06;98922.41;;;15.03;93.76
5755;BME280;2902;42.130;24.732;2023-05-17T01:48:39;98921.59;;;15.02;93.55
5755;BME280;2902;42.130;24.732;2023-05-17T01:51:16;98921.50;;;14.97;93.75
5755;BME280;2902;42.130;24.732;2023-05-17T01:53:47;98921.41;;;14.92;93.78
5755;BME280;2902;42.130;24.732;2023-05-17T01:56:16;98917.91;;;14.92;94.09
5755;BME280;2902;42.130;24.732;2023-05-17T01:58:47;98913.94;;;14.94;94.74
5755;BME280;2902;42.130;24.732;2023-05-17T02:01:17;98928.69;;;14.97;94.43
5755;BME280;2902;42.130;24.732;2023-05-17T02:03:47;98919.38;;;14.99;94.09
5755;BME280;2902;42.130;24.732;2023-05-17T02:06:13;98928.09;;;15.06;93.82
5755;BME280;2902;42.130;24.732;2023-05-17T02:08:40;98917.28;;;15.01;93.27
5755;BME280;2902;42.130;24.732;2023-05-17T02:11:07;98923.19;;;15.03;93.55
5755;BME280;2902;42.130;24.732;2023-05-17T02:13:34;98916.25;;;15.02;94.59
5755;BME280;2902;42.130;24.732;2023-05-17T02:16:04;98917.16;;;14.96;94.37
5755;BME280;2902;42.130;24.732;2023-05-17T02:18:30;98926.25;;;14.95;95.35
5755;BME280;2902;42.130;24.732;2023-05-17T02:20:59;98928.28;;;14.88;95.96
5755;BME280;2902;42.130;24.732;2023-05-17T02:23:26;98933.03;;;14.86;96.57
5755;BME280;2902;42.130;24.732;2023-05-17T02:25:53;98931.31;;;14.80;97.41
5755;BME280;2902;42.130;24.732;2023-05-17T02:28:19;98930.25;;;14.81;97.29
5755;BME280;2902;42.130;24.732;2023-05-17T02:30:46;98923.84;;;14.82;96.62
5755;BME280;2902;42.130;24.732;2023-05-17T02:33:14;98923.94;;;14.87;97.00
5755;BME280;2902;42.130;24.732;2023-05-17T02:35:41;98921.78;;;14.84;96.61
5755;BME280;2902;42.130;24.732;2023-05-17T02:38:07;98928.16;;;14.83;96.76
5755;BME280;2902;42.130;24.732;2023-05-17T02:40:34;98939.81;;;14.77;97.07
5755;BME280;2902;42.130;24.732;2023-05-17T02:43:01;98895.91;;;14.50;97.57
5755;BME280;2902;42.130;24.732;2023-05-17T02:45:28;98939.22;;;14.75;97.41
5755;BME280;2902;42.130;24.732;2023-05-17T02:47:54;98933.88;;;14.75;97.78
5755;BME280;2902;42.130;24.732;2023-05-17T02:50:22;98942.47;;;14.77;97.60
5755;BME280;2902;42.130;24.732;2023-05-17T02:52:49;98948.75;;;14.83;97.73
5755;BME280;2902;42.130;24.732;2023-05-17T02:55:16;98943.72;;;14.86;97.12
5755;BME280;2902;42.130;24.732;2023-05-17T02:57:43;98948.84;;;14.88;96.89
5755;BME280;2902;42.130;24.732;2023-05-17T03:00:11;98947.56;;;14.90;96.81
5755;BME280;2902;42.130;24.732;2023-05-17T03:02:37;98953.22;;;14.94;97.17
5755;BME280;2902;42.130;24.732;2023-05-17T03:05:05;98953.81;;;14.96;96.85
5755;BME280;2902;42.130;24.732;2023-05-17T03:07:33;98953.50;;;14.92;95.72
5755;BME280;2902;42.130;24.732;2023-05-17T03:10:00;98958.34;;;14.95;96.26
5755;BME280;2902;42.130;24.732;2023-05-17T03:12:27;98954.88;;;14.95;96.38
5755;BME280;2902;42.130;24.732;2023-05-17T03:14:53;98964.66;;;14.89;95.78
5755;BME280;2902;42.130;24.732;2023-05-17T03:17:20;98967.44;;;14.94;96.50
5755;BME280;2902;42.130;24.732;2023-05-17T03:19:47;98974.38;;;14.95;96.64
5755;BME280;2902;42.130;24.732;2023-05-17T03:22:14;98980.56;;;14.96;96.35
5755;BME280;2902;42.130;24.732;2023-05-17T03:24:42;98987.69;;;14.79;97.19
5755;BME280;2902;42.130;24.732;2023-05-17T03:27:08;98989.09;;;14.70;97.64
5755;BME280;2902;42.130;24.732;2023-05-17T03:29:35;98997.81;;;14.65;98.04
5755;BME280;2902;42.130;24.732;2023-05-17T03:32:02;98990.63;;;14.66;99.13
5755;BME280;2902;42.130;24.732;2023-05-17T03:34:29;98987.03;;;14.60;99.11
5755;BME280;2902;42.130;24.732;2023-05-17T03:36:56;98988.66;;;14.61;99.28
5755;BME280;2902;42.130;24.732;2023-05-17T03:39:22;98987.47;;;14.57;99.63
5755;BME280;2902;42.130;24.732;2023-05-17T03:41:51;98996.06;;;14.59;99.81
5755;BME280;2902;42.130;24.732;2023-05-17T03:44:18;99005.94;;;14.70;100.00
5755;BME280;2902;42.130;24.732;2023-05-17T03:46:45;98994.19;;;14.71;99.18
5755;BME280;2902;42.130;24.732;2023-05-17T03:49:11;98998.53;;;14.72;99.34
5755;BME280;2902;42.130;24.732;2023-05-17T03:51:39;99001.28;;;14.77;99.06
5755;BME280;2902;42.130;24.732;2023-05-17T03:54:06;99004.06;;;14.82;99.62
5755;BME280;2902;42.130;24.732;2023-05-17T03:56:33;99002.09;;;14.89;98.95
5755;BME280;2902;42.130;24.732;2023-05-17T03:59:01;98997.41;;;14.96;99.25
5755;BME280;2902;42.130;24.732;2023-05-17T04:01:28;99005.66;;;15.06;99.11
5755;BME280;2902;42.130;24.732;2023-05-17T04:03:54;98995.28;;;15.10;98.03
5755;BME280;2902;42.130;24.732;2023-05-17T04:06:21;99001.47;;;15.10;97.68
5755;BME280;2902;42.130;24.732;2023-05-17T04:08:48;98995.50;;;15.08;97.59
5755;BME280;2902;42.130;24.732;2023-05-17T04:11:15;98998.09;;;15.15;98.01
5755;BME280;2902;42.130;24.732;2023-05-17T04:13:47;99002.72;;;15.19;98.04
5755;BME280;2902;42.130;24.732;2023-05-17T04:16:15;99007.78;;;15.32;98.26
5755;BME280;2902;42.130;24.732;2023-05-17T04:18:42;99007.19;;;15.42;97.06
5755;BME280;2902;42.130;24.732;2023-05-17T04:21:09;99004.97;;;15.50;96.49
5755;BME280;2902;42.130;24.732;2023-05-17T04:23:36;99008.56;;;15.56;95.84
5755;BME280;2902;42.130;24.732;2023-05-17T04:26:03;99006.28;;;15.64;96.27
5755;BME280;2902;42.130;24.732;2023-05-17T04:28:30;99004.84;;;15.73;95.84
5755;BME280;2902;42.130;24.732;2023-05-17T04:30:59;98994.97;;;15.90;95.95
5755;BME280;2902;42.130;24.732;2023-05-17T04:33:27;98999.47;;;16.18;98.52
5755;BME280;2902;42.130;24.732;2023-05-17T04:35:54;98993.50;;;16.66;95.88
5755;BME280;2902;42.130;24.732;2023-05-17T04:38:21;99001.34;;;17.10;92.04
5755;BME280;2902;42.130;24.732;2023-05-17T04:40:48;98986.34;;;17.14;89.11
5755;BME280;2902;42.130;24.732;2023-05-17T04:43:15;99000.16;;;17.23;88.21
5755;BME280;2902;42.130;24.732;2023-05-17T04:45:41;98996.28;;;17.35;89.82
5755;BME280;2902;42.130;24.732;2023-05-17T04:48:08;98996.56;;;17.87;89.04
5755;BME280;2902;42.130;24.732;2023-05-17T04:50:37;98988.63;;;18.33;89.01
5755;BME280;2902;42.130;24.732;2023-05-17T04:53:03;98993.53;;;18.78;85.75
5755;BME280;2902;42.130;24.732;2023-05-17T04:55:30;98991.28;;;19.11;81.08
5755;BME280;2902;42.130;24.732;2023-05-17T04:57:57;99005.19;;;19.55;82.39
5755;BME280;2902;42.130;24.732;2023-05-17T05:00:23;99001.50;;;19.91;78.98
5755;BME280;2902;42.130;24.732;2023-05-17T05:02:50;99038.22;;;20.37;73.94
5755;BME280;2902;42.130;24.732;2023-05-17T05:05:17;99032.81;;;20.62;74.92
5755;BME280;2902;42.130;24.732;2023-05-17T05:07:46;99031.75;;;20.43;73.43
5755;BME280;2902;42.130;24.732;2023-05-17T05:10:13;99032.78;;;20.02;74.89
5755;BME280;2902;42.130;24.732;2023-05-17T05:12:39;99019.78;;;19.64;77.46
5755;BME280;2902;42.130;24.732;2023-05-17T05:15:07;99015.38;;;19.43;77.07
5755;BME280;2902;42.130;24.732;2023-05-17T05:17:34;99024.19;;;19.23;79.58
5755;BME280;2902;42.130;24.732;2023-05-17T05:20:01;99025.31;;;19.27;78.38
5755;BME280;2902;42.130;24.732;2023-05-17T05:22:27;99025.13;;;19.54;79.89
5755;BME280;2902;42.130;24.732;2023-05-17T05:24:56;99021.97;;;19.77;77.14
5755;BME280;2902;42.130;24.732;2023-05-17T05:27:22;99030.31;;;19.80;77.85
5755;BME280;2902;42.130;24.732;2023-05-17T05:29:49;99032.75;;;19.87;78.50
5755;BME280;2902;42.130;24.732;2023-05-17T05:32:16;99039.25;;;20.01;76.53
5755;BME280;2902;42.130;24.732;2023-05-17T05:34:43;99027.97;;;20.14;77.89
5755;BME280;2902;42.130;24.732;2023-05-17T05:37:10;99022.56;;;20.29;76.98
5755;BME280;2902;42.130;24.732;2023-05-17T05:39:37;99037.69;;;20.40;75.76
5755;BME280;2902;42.130;24.732;2023-05-17T05:42:05;99039.31;;;20.31;76.33
5755;BME280;2902;42.130;24.732;2023-05-17T05:44:32;99038.22;;;20.32;77.09
5755;BME280;2902;42.130;24.732;2023-05-17T05:46:59;99047.38;;;20.16;76.03
5755;BME280;2902;42.130;24.732;2023-05-17T05:49:25;99034.97;;;20.05;76.78
5755;BME280;2902;42.130;24.732;2023-05-17T05:51:52;99026.56;;;20.01;77.12
5755;BME280;2902;42.130;24.732;2023-05-17T05:54:19;99028.78;;;20.09;76.05
5755;BME280;2902;42.130;24.732;2023-05-17T05:56:46;99026.34;;;20.28;76.28
5755;BME280;2902;42.130;24.732;2023-05-17T05:59:14;99025.81;;;20.41;75.63
5755;BME280;2902;42.130;24.732;2023-05-17T06:01:40;99018.25;;;20.53;74.85
5755;BME280;2902;42.130;24.732;2023-05-17T06:04:08;99029.59;;;20.60;75.08
5755;BME280;2902;42.130;24.732;2023-05-17T06:06:34;99031.72;;;20.68;73.84
5755;BME280;2902;42.130;24.732;2023-05-17T06:09:01;99028.50;;;20.56;74.76
5755;BME280;2902;42.130;24.732;2023-05-17T06:11:28;99034.72;;;20.46;75.23
5755;BME280;2902;42.130;24.732;2023-05-17T06:13:55;99036.06;;;20.44;75.36
5755;BME280;2902;42.130;24.732;2023-05-17T06:16:23;99038.50;;;20.30;75.84
5755;BME280;2902;42.130;24.732;2023-05-17T06:18:49;99037.34;;;20.06;76.50
5755;BME280;2902;42.130;24.732;2023-05-17T06:21:16;99044.63;;;19.86;76.98
5755;BME280;2902;42.130;24.732;2023-05-17T06:23:43;99038.66;;;19.74;79.00
5755;BME280;2902;42.130;24.732;2023-05-17T06:26:10;99041.88;;;19.71;78.82
5755;BME280;2902;42.130;24.732;2023-05-17T06:28:36;99039.75;;;19.78;78.09
5755;BME280;2902;42.130;24.732;2023-05-17T06:31:03;99036.53;;;19.91;77.57
5755;BME280;2902;42.130;24.732;2023-05-17T06:33:31;99035.47;;;20.02;77.21
5755;BME280;2902;42.130;24.732;2023-05-17T06:35:58;99026.31;;;20.08;77.33
5755;BME280;2902;42.130;24.732;2023-05-17T06:38:25;99032.28;;;20.15;76.41
5755;BME280;2902;42.130;24.732;2023-05-17T06:40:52;99026.91;;;20.15;76.73
5755;BME280;2902;42.130;24.732;2023-05-17T06:43:19;99037.16;;;20.18;76.92
5755;BME280;2902;42.130;24.732;2023-05-17T06:45:46;99042.53;;;20.18;75.99
5755;BME280;2902;42.130;24.732;2023-05-17T06:48:13;99041.41;;;20.04;75.38
5755;BME280;2902;42.130;24.732;2023-05-17T06:50:41;99053.81;;;20.00;76.43
5755;BME280;2902;42.130;24.732;2023-05-17T06:53:08;99043.78;;;19.85;75.82
5755;BME280;2902;42.130;24.732;2023-05-17T06:55:35;99048.41;;;19.85;77.18
5755;BME280;2902;42.130;24.732;2023-05-17T06:58:02;99058.09;;;19.81;76.17
5755;BME280;2902;42.130;24.732;2023-05-17T07:00:29;99057.78;;;19.67;76.90
5755;BME280;2902;42.130;24.732;2023-05-17T07:02:56;99067.16;;;19.55;78.22
5755;BME280;2902;42.130;24.732;2023-05-17T07:05:22;99073.63;;;19.54;77.72
5755;BME280;2902;42.130;24.732;2023-05-17T07:07:50;99072.94;;;19.27;79.01
5755;BME280;2902;42.130;24.732;2023-05-17T07:10:17;99077.13;;;19.03;79.77
5755;BME280;2902;42.130;24.732;2023-05-17T07:12:44;99079.72;;;18.88;80.75
5755;BME280;2902;42.130;24.732;2023-05-17T07:15:10;99065.13;;;18.79;82.75
5755;BME280;2902;42.130;24.732;2023-05-17T07:17:37;99080.19;;;18.80;81.48
5755;BME280;2902;42.130;24.732;2023-05-17T07:20:05;99079.03;;;18.66;81.99
5755;BME280;2902;42.130;24.732;2023-05-17T07:22:32;99084.94;;;18.68;82.85
5755;BME280;2902;42.130;24.732;2023-05-17T07:25:00;99072.78;;;18.60;82.53
5755;BME280;2902;42.130;24.732;2023-05-17T07:27:27;99068.69;;;18.53;83.39
5755;BME280;2902;42.130;24.732;2023-05-17T07:29:54;99068.75;;;18.58;84.62
5755;BME280;2902;42.130;24.732;2023-05-17T07:32:21;99054.00;;;18.65;84.36
5755;BME280;2902;42.130;24.732;2023-05-17T07:34:47;99045.28;;;18.53;83.74
5755;BME280;2902;42.130;24.732;2023-05-17T07:37:14;99061.94;;;18.50;84.62
5755;BME280;2902;42.130;24.732;2023-05-17T07:39:41;99065.88;;;18.38;84.79
5755;BME280;2902;42.130;24.732;2023-05-17T07:42:09;99068.75;;;18.31;85.60
5755;BME280;2902;42.130;24.732;2023-05-17T07:44:36;99044.72;;;18.20;86.73
5755;BME280;2902;42.130;24.732;2023-05-17T07:47:03;99038.75;;;18.13;88.19
5755;BME280;2902;42.130;24.732;2023-05-17T07:49:30;99033.53;;;18.01;87.93
5755;BME280;2902;42.130;24.732;2023-05-17T07:51:56;99049.91;;;18.00;89.42
5755;BME280;2902;42.130;24.732;2023-05-17T07:54:23;99061.63;;;18.15;89.52
5755;BME280;2902;42.130;24.732;2023-05-17T07:56:51;99066.81;;;18.27;89.76
5755;BME280;2902;42.130;24.732;2023-05-17T07:59:21;99067.47;;;18.34;89.53
5755;BME280;2902;42.130;24.732;2023-05-17T08:01:48;99061.06;;;18.40;90.68
5755;BME280;2902;42.130;24.732;2023-05-17T08:04:14;99073.22;;;18.47;91.10
5755;BME280;2902;42.130;24.732;2023-05-17T08:06:42;99078.34;;;18.49;90.33
5755;BME280;2902;42.130;24.732;2023-05-17T08:09:11;99067.03;;;18.47;90.51
5755;BME280;2902;42.130;24.732;2023-05-17T08:11:38;99058.94;;;18.42;91.10
5755;BME280;2902;42.130;24.732;2023-05-17T08:14:10;99060.94;;;18.30;92.30
5755;BME280;2902;42.130;24.732;2023-05-17T08:16:39;99063.59;;;18.25;93.00
5755;BME280;2902;42.130;24.732;2023-05-17T08:19:06;99051.94;;;18.14;93.39
5755;BME280;2902;42.130;24.732;2023-05-17T08:21:32;99032.16;;;17.99;94.99
5755;BME280;2902;42.130;24.732;2023-05-17T08:24:01;99029.94;;;17.91;95.32
5755;BME280;2902;42.130;24.732;2023-05-17T08:26:28;99035.00;;;17.87;96.51
5755;BME280;2902;42.130;24.732;2023-05-17T08:28:55;99034.13;;;17.82;96.99
5755;BME280;2902;42.130;24.732;2023-05-17T08:31:21;99040.09;;;17.84;96.55
5755;BME280;2902;42.130;24.732;2023-05-17T08:33:49;99038.44;;;17.83;97.50
5755;BME280;2902;42.130;24.732;2023-05-17T08:36:16;99043.63;;;17.89;97.69
5755;BME280;2902;42.130;24.732;2023-05-17T08:38:45;99035.88;;;17.93;97.59
5755;BME280;2902;42.130;24.732;2023-05-17T08:41:12;99047.69;;;17.92;97.47
5755;BME280;2902;42.130;24.732;2023-05-17T08:43:39;99060.06;;;17.93;97.38
5755;BME280;2902;42.130;24.732;2023-05-17T08:46:08;99063.03;;;17.96;98.33
5755;BME280;2902;42.130;24.732;2023-05-17T08:48:36;99076.47;;;17.96;97.36
5755;BME280;2902;42.130;24.732;2023-05-17T08:51:08;99078.09;;;17.97;96.92
5755;BME280;2902;42.130;24.732;2023-05-17T08:53:35;99080.25;;;17.95;96.66
5755;BME280;2902;42.130;24.732;2023-05-17T08:56:03;99075.84;;;17.89;96.93
5755;BME280;2902;42.130;24.732;2023-05-17T08:58:33;99082.75;;;17.80;97.19
5755;BME280;2902;42.130;24.732;2023-05-17T09:01:02;99084.56;;;17.75;99.20
5755;BME280;2902;42.130;24.732;2023-05-17T09:03:31;99087.19;;;17.70;99.90
5755;BME280;2902;42.130;24.732;2023-05-17T09:06:00;99083.53;;;17.54;100.00
5755;BME280;2902;42.130;24.732;2023-05-17T09:08:28;99076.06;;;17.40;100.00
5755;BME280;2902;42.130;24.732;2023-05-17T09:10:57;99071.09;;;17.27;100.00
5755;BME280;2902;42.130;24.732;2023-05-17T09:13:24;99067.03;;;17.24;100.00
5755;BME280;2902;42.130;24.732;2023-05-17T09:15:51;99070.94;;;17.17;100.00
5755;BME280;2902;42.130;24.732;2023-05-17T09:18:18;99066.13;;;16.97;100.00
5755;BME280;2902;42.130;24.732;2023-05-17T09:20:49;99060.28;;;16.84;100.00
5755;BME280;2902;42.130;24.732;2023-05-17T09:23:19;99047.22;;;16.71;100.00
5755;BME280;2902;42.130;24.732;2023-05-17T09:25:48;99036.06;;;16.79;100.00
5755;BME280;2902;42.130;24.732;2023-05-17T09:28:17;99040.72;;;16.83;100.00
5755;BME280;2902;42.130;24.732;2023-05-17T09:30:46;99042.09;;;16.86;100.00
5755;BME280;2902;42.130;24.732;2023-05-17T09:33:13;99027.13;;;16.90;100.00
5755;BME280;2902;42.130;24.732;2023-05-17T09:35:40;99030.41;;;16.97;100.00
5755;BME280;2902;42.130;24.732;2023-05-17T09:38:09;99039.91;;;17.04;100.00
5755;BME280;2902;42.130;24.732;2023-05-17T09:40:37;99045.34;;;17.09;100.00
5755;BME280;2902;42.130;24.732;2023-05-17T09:43:06;99046.28;;;17.20;100.00
5755;BME280;2902;42.130;24.732;2023-05-17T09:45:34;99057.56;;;17.22;100.00
5755;BME280;2902;42.130;24.732;2023-05-17T09:48:11;99061.81;;;17.18;100.00
5755;BME280;2902;42.130;24.732;2023-05-17T09:50:43;99055.97;;;17.21;100.00
5755;BME280;2902;42.130;24.732;2023-05-17T09:53:27;99050.16;;;17.29;100.00
5755;BME280;2902;42.130;24.732;2023-05-17T09:55:55;99055.34;;;17.35;100.00
5755;BME280;2902;42.130;24.732;2023-05-17T09:58:24;99048.59;;;17.33;100.00
5755;BME280;2902;42.130;24.732;2023-05-17T10:00:52;99055.44;;;17.40;100.00
5755;BME280;2902;42.130;24.732;2023-05-17T10:03:19;99052.81;;;17.45;100.00
5755;BME280;2902;42.130;24.732;2023-05-17T10:05:50;99058.19;;;17.45;100.00
5755;BME280;2902;42.130;24.732;2023-05-17T10:08:20;99050.44;;;17.49;100.00
5755;BME280;2902;42.130;24.732;2023-05-17T10:10:48;99055.25;;;17.47;100.00
5755;BME280;2902;42.130;24.732;2023-05-17T10:13:20;99053.63;;;17.46;100.00
5755;BME280;2902;42.130;24.732;2023-05-17T10:15:50;99051.91;;;17.40;100.00
5755;BME280;2902;42.130;24.732;2023-05-17T10:18:19;99057.38;;;17.45;100.00
5755;BME280;2902;42.130;24.732;2023-05-17T10:20:46;99049.88;;;17.47;100.00
5755;BME280;2902;42.130;24.732;2023-05-17T10:23:14;99047.00;;;17.53;100.00
5755;BME280;2902;42.130;24.732;2023-05-17T10:25:42;99037.09;;;17.59;99.63
5755;BME280;2902;42.130;24.732;2023-05-17T10:28:09;99043.69;;;17.68;99.36
5755;BME280;2902;42.130;24.732;2023-05-17T10:30:38;99042.59;;;17.69;100.00
5755;BME280;2902;42.130;24.732;2023-05-17T10:33:07;99041.59;;;17.75;100.00
5755;BME280;2902;42.130;24.732;2023-05-17T10:35:37;99029.47;;;17.72;100.00
5755;BME280;2902;42.130;24.732;2023-05-17T10:38:03;99030.34;;;17.78;100.00
5755;BME280;2902;42.130;24.732;2023-05-17T10:40:31;99028.47;;;17.78;100.00
5755;BME280;2902;42.130;24.732;2023-05-17T10:42:58;99030.38;;;17.83;100.00
5755;BME280;2902;42.130;24.732;2023-05-17T10:45:26;99020.22;;;17.85;100.00
5755;BME280;2902;42.130;24.732;2023-05-17T10:47:53;99024.25;;;17.87;100.00
5755;BME280;2902;42.130;24.732;2023-05-17T10:50:23;99031.28;;;17.93;100.00
5755;BME280;2902;42.130;24.732;2023-05-17T10:52:51;99042.25;;;17.87;99.91
5755;BME280;2902;42.130;24.732;2023-05-17T10:55:20;99037.13;;;17.85;100.00
5755;BME280;2902;42.130;24.732;2023-05-17T10:58:12;99040.44;;;17.92;100.00
5755;BME280;2902;42.130;24.732;2023-05-17T11:00:42;99033.47;;;17.96;99.88
5755;BME280;2902;42.130;24.732;2023-05-17T11:03:11;99031.38;;;17.98;99.23
5755;BME280;2902;42.130;24.732;2023-05-17T11:05:40;99031.66;;;18.02;99.35
5755;BME280;2902;42.130;24.732;2023-05-17T11:08:12;99027.34;;;18.01;98.99
5755;BME280;2902;42.130;24.732;2023-05-17T11:11:06;99024.69;;;18.06;98.74
5755;BME280;2902;42.130;24.732;2023-05-17T11:13:33;99030.03;;;18.01;97.70
5755;BME280;2902;42.130;24.732;2023-05-17T11:16:03;99025.16;;;17.98;99.52
5755;BME280;2902;42.130;24.732;2023-05-17T11:18:45;99020.81;;;17.92;99.72
5755;BME280;2902;42.130;24.732;2023-05-17T11:21:13;99012.59;;;17.77;100.00
5755;BME280;2902;42.130;24.732;2023-05-17T11:23:42;99005.53;;;17.71;100.00
5755;BME280;2902;42.130;24.732;2023-05-17T11:26:15;99017.97;;;17.77;100.00
5755;BME280;2902;42.130;24.732;2023-05-17T11:28:42;99019.09;;;17.81;100.00
5755;BME280;2902;42.130;24.732;2023-05-17T11:31:09;99014.84;;;17.85;100.00
5755;BME280;2902;42.130;24.732;2023-05-17T11:33:37;98991.13;;;17.77;100.00
5755;BME280;2902;42.130;24.732;2023-05-17T11:36:14;99004.63;;;17.87;100.00
5755;BME280;2902;42.130;24.732;2023-05-17T11:38:44;99002.97;;;17.81;100.00
5755;BME280;2902;42.130;24.732;2023-05-17T11:41:18;99013.59;;;17.71;100.00
5755;BME280;2902;42.130;24.732;2023-05-17T11:43:47;99000.63;;;17.63;100.00
5755;BME280;2902;42.130;24.732;2023-05-17T11:46:22;98987.94;;;17.53;100.00
5755;BME280;2902;42.130;24.732;2023-05-17T11:48:49;98992.03;;;17.39;100.00
5755;BME280;2902;42.130;24.732;2023-05-17T11:51:18;98989.53;;;17.33;100.00
5755;BME280;2902;42.130;24.732;2023-05-17T11:53:45;98998.03;;;17.25;100.00
5755;BME280;2902;42.130;24.732;2023-05-17T11:56:13;98993.03;;;17.12;100.00
5755;BME280;2902;42.130;24.732;2023-05-17T11:58:42;99000.72;;;17.03;100.00
5755;BME280;2902;42.130;24.732;2023-05-17T12:01:09;98986.28;;;16.88;100.00
5755;BME280;2902;42.130;24.732;2023-05-17T12:03:36;98974.56;;;16.72;100.00
5755;BME280;2902;42.130;24.732;2023-05-17T12:06:07;98977.84;;;16.58;100.00
5755;BME280;2902;42.130;24.732;2023-05-17T12:08:37;98972.59;;;16.68;100.00
5755;BME280;2902;42.130;24.732;2023-05-17T12:11:05;98981.78;;;16.72;100.00
5755;BME280;2902;42.130;24.732;2023-05-17T12:13:33;98981.34;;;16.80;100.00
5755;BME280;2902;42.130;24.732;2023-05-17T12:16:01;98977.31;;;16.99;100.00
5755;BME280;2902;42.130;24.732;2023-05-17T12:18:34;98974.75;;;17.09;100.00
5755;BME280;2902;42.130;24.732;2023-05-17T12:21:01;98974.94;;;17.24;100.00
5755;BME280;2902;42.130;24.732;2023-05-17T12:23:30;98979.41;;;17.40;100.00
5755;BME280;2902;42.130;24.732;2023-05-17T12:26:06;98981.97;;;17.51;100.00
5755;BME280;2902;42.130;24.732;2023-05-17T12:28:34;98978.09;;;17.64;100.00
5755;BME280;2902;42.130;24.732;2023-05-17T12:31:02;98984.84;;;17.66;100.00
5755;BME280;2902;42.130;24.732;2023-05-17T12:33:30;98982.69;;;17.68;100.00
5755;BME280;2902;42.130;24.732;2023-05-17T12:36:00;98962.44;;;17.56;100.00
5755;BME280;2902;42.130;24.732;2023-05-17T12:38:27;98984.13;;;17.76;100.00
5755;BME280;2902;42.130;24.732;2023-05-17T12:40:57;98980.38;;;17.77;100.00
5755;BME280;2902;42.130;24.732;2023-05-17T12:43:26;98981.97;;;17.78;100.00
5755;BME280;2902;42.130;24.732;2023-05-17T12:45:56;98972.91;;;17.84;100.00
5755;BME280;2902;42.130;24.732;2023-05-17T12:48:27;98975.06;;;17.87;100.00
5755;BME280;2902;42.130;24.732;2023-05-17T12:50:54;98976.75;;;17.93;100.00
5755;BME280;2902;42.130;24.732;2023-05-17T12:53:21;98980.81;;;17.95;100.00
5755;BME280;2902;42.130;24.732;2023-05-17T12:55:48;98974.09;;;17.98;100.00
5755;BME280;2902;42.130;24.732;2023-05-17T12:58:15;98966.66;;;18.05;100.00
5755;BME280;2902;42.130;24.732;2023-05-17T13:00:59;98956.22;;;18.13;100.00
5755;BME280;2902;42.130;24.732;2023-05-17T13:03:26;98959.25;;;18.22;100.00
5755;BME280;2902;42.130;24.732;2023-05-17T13:05:57;98955.47;;;18.23;100.00
5755;BME280;2902;42.130;24.732;2023-05-17T13:08:24;98954.63;;;18.17;100.00
5755;BME280;2902;42.130;24.732;2023-05-17T13:10:51;98956.47;;;18.12;100.00
5755;BME280;2902;42.130;24.732;2023-05-17T13:13:18;98942.72;;;18.03;100.00